BAW837 LDDU-EGLL
Flight info
| Callsign | BAW837 |
|---|---|
| Flight time | 2h 26m |
| Altitude | 20000 |
| Route | AMUGO L611 UVODI L862 SPL/N0442F340 DCT PEVAL/N0443F360 DCT BADOP DCT SAFFA DCT ELMUR DCT RIPUS DCT DITON DCT HOC DCT LUL DCT RLP DCT ROTSI DCT KOTUN DCT NINAL DCT ABNUR DCT DIMAL DCT ALESO |
| Aircraft | A320/M-SDE3FGHIRWY/LB1 |
Departure
| Time | 2026-05-03 20:24 |
|---|---|
| Airport | Dubrovnik Ruđer Bošković Airport (LDDU) |
Arrival
| Time | 2026-05-03 22:50 |
|---|---|
| Airport | London Heathrow Airport (EGLL) |
| Time | Latitude | Longitude | Altitude | Speed | Heading |
|---|---|---|---|---|---|
| 2026-05-03 20:15 | 42.56124 | 18.26384 | 534 ft | 3 kts | 298° |
| 2026-05-03 20:15 | 42.56122 | 18.26389 | 534 ft | 0 kts | 298° |
| 2026-05-03 20:17 | 42.56128 | 18.26375 | 534 ft | 4 kts | 298° |
| 2026-05-03 20:17 | 42.56150 | 18.26319 | 534 ft | 9 kts | 298° |
| 2026-05-03 20:18 | 42.56187 | 18.26225 | 534 ft | 13 kts | 298° |
| 2026-05-03 20:18 | 42.56235 | 18.26105 | 534 ft | 16 kts | 298° |
| 2026-05-03 20:18 | 42.56292 | 18.25960 | 534 ft | 19 kts | 298° |
| 2026-05-03 20:18 | 42.56358 | 18.25795 | 534 ft | 17 kts | 298° |
| 2026-05-03 20:19 | 42.56418 | 18.25645 | 534 ft | 20 kts | 298° |
| 2026-05-03 20:19 | 42.56482 | 18.25484 | 534 ft | 20 kts | 298° |
| 2026-05-03 20:19 | 42.56553 | 18.25304 | 533 ft | 23 kts | 298° |
| 2026-05-03 20:19 | 42.56611 | 18.25158 | 533 ft | 16 kts | 298° |
| 2026-05-03 20:20 | 42.56670 | 18.25009 | 533 ft | 19 kts | 298° |
| 2026-05-03 20:20 | 42.56738 | 18.24838 | 534 ft | 17 kts | 298° |
| 2026-05-03 20:20 | 42.56789 | 18.24712 | 534 ft | 12 kts | 306° |
| 2026-05-03 20:20 | 42.56805 | 18.24693 | 533 ft | 0 kts | 323° |
| 2026-05-03 20:22 | 42.56829 | 18.24676 | 533 ft | 8 kts | 341° |
| 2026-05-03 20:22 | 42.56905 | 18.24698 | 533 ft | 14 kts | 35° |
| 2026-05-03 20:23 | 42.56944 | 18.24784 | 533 ft | 10 kts | 90° |
| 2026-05-03 20:23 | 42.56911 | 18.24869 | 533 ft | 15 kts | 119° |
| 2026-05-03 20:23 | 42.56791 | 18.25170 | 531 ft | 70 kts | 118° |
| 2026-05-03 20:23 | 42.56448 | 18.26043 | 534 ft | 136 kts | 118° |
| 2026-05-03 20:24 | 42.55915 | 18.27391 | 580 ft | 183 kts | 117° |
| 2026-05-03 20:24 | 42.55312 | 18.28911 | 1326 ft | 185 kts | 117° |
| 2026-05-03 20:24 | 42.54683 | 18.30479 | 2039 ft | 199 kts | 117° |
| 2026-05-03 20:24 | 42.54001 | 18.32206 | 2354 ft | 217 kts | 118° |
| 2026-05-03 20:25 | 42.52941 | 18.33701 | 2742 ft | 230 kts | 155° |
| 2026-05-03 20:25 | 42.51376 | 18.33923 | 3364 ft | 231 kts | 198° |
| 2026-05-03 20:25 | 42.50054 | 18.32758 | 4000 ft | 229 kts | 232° |
| 2026-05-03 20:25 | 42.48958 | 18.31180 | 4687 ft | 233 kts | 216° |
| 2026-05-03 20:26 | 42.47489 | 18.30224 | 5342 ft | 237 kts | 198° |
| 2026-05-03 20:26 | 42.45887 | 18.29647 | 6029 ft | 239 kts | 193° |
| 2026-05-03 20:26 | 42.44249 | 18.29193 | 6694 ft | 242 kts | 192° |
| 2026-05-03 20:26 | 42.42583 | 18.28755 | 7315 ft | 246 kts | 192° |
| 2026-05-03 20:27 | 42.40959 | 18.28107 | 7900 ft | 249 kts | 212° |
| 2026-05-03 20:27 | 42.39729 | 18.26470 | 8494 ft | 247 kts | 246° |
| 2026-05-03 20:27 | 42.39326 | 18.24219 | 8757 ft | 259 kts | 278° |
| 2026-05-03 20:27 | 42.39777 | 18.21797 | 9016 ft | 275 kts | 292° |
| 2026-05-03 20:28 | 42.40383 | 18.19292 | 9584 ft | 284 kts | 292° |
| 2026-05-03 20:28 | 42.40994 | 18.16734 | 10242 ft | 288 kts | 292° |
| 2026-05-03 20:28 | 42.41606 | 18.14144 | 10882 ft | 291 kts | 292° |
| 2026-05-03 20:28 | 42.42222 | 18.11518 | 11431 ft | 299 kts | 292° |
| 2026-05-03 20:29 | 42.42874 | 18.08741 | 11565 ft | 320 kts | 291° |
| 2026-05-03 20:29 | 42.43570 | 18.05775 | 11691 ft | 340 kts | 291° |
| 2026-05-03 20:29 | 42.44301 | 18.02637 | 11823 ft | 359 kts | 291° |
| 2026-05-03 20:29 | 42.45063 | 17.99347 | 12093 ft | 371 kts | 291° |
| 2026-05-03 20:30 | 42.45835 | 17.95989 | 12599 ft | 376 kts | 291° |
| 2026-05-03 20:30 | 42.46613 | 17.92594 | 13156 ft | 379 kts | 291° |
| 2026-05-03 20:30 | 42.47398 | 17.89168 | 13714 ft | 382 kts | 291° |
| 2026-05-03 20:30 | 42.48189 | 17.85717 | 14222 ft | 386 kts | 291° |
| 2026-05-03 20:31 | 42.48989 | 17.82232 | 14712 ft | 388 kts | 291° |
| 2026-05-03 20:31 | 42.49792 | 17.78727 | 15188 ft | 391 kts | 291° |
| 2026-05-03 20:31 | 42.50598 | 17.75197 | 15661 ft | 394 kts | 291° |
| 2026-05-03 20:31 | 42.51407 | 17.71638 | 16119 ft | 396 kts | 291° |
| 2026-05-03 20:32 | 42.52221 | 17.68060 | 16588 ft | 399 kts | 291° |
| 2026-05-03 20:32 | 42.53043 | 17.64453 | 17079 ft | 401 kts | 291° |
| 2026-05-03 20:32 | 42.53895 | 17.60838 | 17562 ft | 403 kts | 295° |
| 2026-05-03 20:32 | 42.55086 | 17.57418 | 18032 ft | 401 kts | 304° |
| 2026-05-03 20:33 | 42.56660 | 17.54318 | 18490 ft | 400 kts | 311° |
| 2026-05-03 20:33 | 42.58341 | 17.51293 | 18922 ft | 402 kts | 311° |
| 2026-05-03 20:33 | 42.60029 | 17.48258 | 19351 ft | 404 kts | 311° |
| 2026-05-03 20:33 | 42.61720 | 17.45202 | 19800 ft | 406 kts | 310° |
| 2026-05-03 20:34 | 42.63418 | 17.42118 | 20241 ft | 408 kts | 310° |
| 2026-05-03 20:34 | 42.65117 | 17.39020 | 20642 ft | 410 kts | 310° |
| 2026-05-03 20:34 | 42.66826 | 17.35906 | 21046 ft | 412 kts | 310° |
| 2026-05-03 20:34 | 42.68542 | 17.32772 | 21435 ft | 414 kts | 310° |
| 2026-05-03 20:35 | 42.70269 | 17.29625 | 21825 ft | 416 kts | 310° |
| 2026-05-03 20:35 | 42.72003 | 17.26465 | 22186 ft | 418 kts | 310° |
| 2026-05-03 20:35 | 42.73748 | 17.23280 | 22533 ft | 421 kts | 310° |
| 2026-05-03 20:35 | 42.75498 | 17.20082 | 22888 ft | 423 kts | 310° |
| 2026-05-03 20:36 | 42.77252 | 17.16868 | 23239 ft | 425 kts | 310° |
| 2026-05-03 20:36 | 42.79016 | 17.13629 | 23590 ft | 427 kts | 310° |
| 2026-05-03 20:36 | 42.80786 | 17.10376 | 23890 ft | 428 kts | 310° |
| 2026-05-03 20:36 | 42.82562 | 17.07112 | 24196 ft | 430 kts | 310° |
| 2026-05-03 20:37 | 42.84344 | 17.03832 | 24479 ft | 431 kts | 310° |
| 2026-05-03 20:37 | 42.86130 | 17.00541 | 24795 ft | 432 kts | 309° |
| 2026-05-03 20:37 | 42.87909 | 16.97256 | 25239 ft | 430 kts | 309° |
| 2026-05-03 20:37 | 42.89675 | 16.93989 | 25700 ft | 427 kts | 309° |
| 2026-05-03 20:38 | 42.91435 | 16.90737 | 26164 ft | 425 kts | 310° |
| 2026-05-03 20:38 | 42.93184 | 16.87505 | 26647 ft | 423 kts | 309° |
| 2026-05-03 20:38 | 42.94927 | 16.84286 | 27128 ft | 420 kts | 310° |
| 2026-05-03 20:38 | 42.96657 | 16.81086 | 27641 ft | 418 kts | 310° |
| 2026-05-03 20:39 | 42.98377 | 16.77900 | 28117 ft | 416 kts | 310° |
| 2026-05-03 20:39 | 43.00085 | 16.74730 | 28584 ft | 414 kts | 309° |
| 2026-05-03 20:39 | 43.01784 | 16.71571 | 29068 ft | 412 kts | 309° |
| 2026-05-03 20:39 | 43.03474 | 16.68424 | 29542 ft | 409 kts | 309° |
| 2026-05-03 20:40 | 43.05146 | 16.65303 | 30095 ft | 405 kts | 309° |
| 2026-05-03 20:40 | 43.06802 | 16.62200 | 30539 ft | 403 kts | 309° |
| 2026-05-03 20:40 | 43.08451 | 16.59110 | 30933 ft | 401 kts | 309° |
| 2026-05-03 20:40 | 43.10235 | 16.56208 | 31292 ft | 397 kts | 318° |
| 2026-05-03 20:41 | 43.12344 | 16.53806 | 31656 ft | 393 kts | 328° |
| 2026-05-03 20:41 | 43.14711 | 16.51971 | 32018 ft | 391 kts | 336° |
| 2026-05-03 20:41 | 43.17195 | 16.50469 | 32387 ft | 390 kts | 337° |
| 2026-05-03 20:41 | 43.19670 | 16.48963 | 32750 ft | 389 kts | 336° |
| 2026-05-03 20:42 | 43.22138 | 16.47451 | 33116 ft | 388 kts | 336° |
| 2026-05-03 20:42 | 43.24572 | 16.45955 | 33448 ft | 389 kts | 336° |
| 2026-05-03 20:42 | 43.27038 | 16.44436 | 33763 ft | 389 kts | 336° |
| 2026-05-03 20:42 | 43.29506 | 16.42915 | 34028 ft | 389 kts | 336° |
| 2026-05-03 20:43 | 43.31984 | 16.41389 | 34077 ft | 393 kts | 336° |
| 2026-05-03 20:43 | 43.37067 | 16.38257 | 34078 ft | 407 kts | 336° |
| 2026-05-03 20:44 | 43.42268 | 16.35048 | 34082 ft | 411 kts | 336° |
| 2026-05-03 20:44 | 43.47478 | 16.31740 | 34082 ft | 413 kts | 331° |
| 2026-05-03 20:45 | 43.51293 | 16.27782 | 34081 ft | 416 kts | 316° |
| 2026-05-03 20:45 | 43.55099 | 16.21746 | 34084 ft | 418 kts | 313° |
| 2026-05-03 20:46 | 43.58893 | 16.15673 | 34087 ft | 418 kts | 313° |
| 2026-05-03 20:46 | 43.62686 | 16.09594 | 34092 ft | 418 kts | 313° |
| 2026-05-03 20:47 | 43.66470 | 16.03498 | 34088 ft | 418 kts | 313° |
| 2026-05-03 20:47 | 43.70252 | 15.97393 | 34071 ft | 418 kts | 313° |
| 2026-05-03 20:48 | 43.74039 | 15.91275 | 34088 ft | 419 kts | 312° |
| 2026-05-03 20:48 | 43.77818 | 15.85151 | 34095 ft | 419 kts | 312° |
| 2026-05-03 20:49 | 43.81593 | 15.79009 | 34099 ft | 419 kts | 312° |
| 2026-05-03 20:49 | 43.85371 | 15.72856 | 34107 ft | 419 kts | 312° |
| 2026-05-03 20:50 | 43.89144 | 15.66697 | 34112 ft | 419 kts | 312° |
| 2026-05-03 20:50 | 43.92914 | 15.60528 | 34108 ft | 419 kts | 312° |
| 2026-05-03 20:51 | 43.96685 | 15.54354 | 34109 ft | 419 kts | 311° |
| 2026-05-03 20:51 | 44.00455 | 15.48163 | 34115 ft | 420 kts | 311° |
| 2026-05-03 20:52 | 44.04222 | 15.41951 | 34130 ft | 420 kts | 311° |
| 2026-05-03 20:52 | 44.07985 | 15.35737 | 34127 ft | 421 kts | 311° |
| 2026-05-03 20:53 | 44.11726 | 15.29558 | 34122 ft | 420 kts | 311° |
| 2026-05-03 20:53 | 44.15478 | 15.23343 | 34129 ft | 419 kts | 311° |
| 2026-05-03 20:54 | 44.19220 | 15.17128 | 34132 ft | 419 kts | 311° |
| 2026-05-03 20:54 | 44.24833 | 15.07784 | 34120 ft | 419 kts | 311° |
| 2026-05-03 20:55 | 44.28574 | 15.01546 | 34112 ft | 418 kts | 311° |
| 2026-05-03 20:55 | 44.32295 | 14.95326 | 34118 ft | 417 kts | 311° |
| 2026-05-03 20:56 | 44.36003 | 14.89112 | 34122 ft | 416 kts | 311° |
| 2026-05-03 20:56 | 44.39703 | 14.82897 | 34121 ft | 416 kts | 311° |
| 2026-05-03 20:57 | 44.43395 | 14.76675 | 34125 ft | 416 kts | 311° |
| 2026-05-03 20:57 | 44.47089 | 14.70439 | 34110 ft | 417 kts | 311° |
| 2026-05-03 20:58 | 44.50788 | 14.64181 | 34107 ft | 417 kts | 310° |
| 2026-05-03 20:58 | 44.54491 | 14.57907 | 34104 ft | 418 kts | 310° |
| 2026-05-03 20:59 | 44.58192 | 14.51625 | 34105 ft | 418 kts | 310° |
| 2026-05-03 20:59 | 44.61864 | 14.45371 | 34098 ft | 418 kts | 311° |
| 2026-05-03 21:00 | 44.64946 | 14.40102 | 34116 ft | 416 kts | 311° |
| 2026-05-03 21:00 | 44.69214 | 14.32805 | 34126 ft | 415 kts | 310° |
| 2026-05-03 21:01 | 44.72879 | 14.26528 | 34120 ft | 415 kts | 310° |
| 2026-05-03 21:01 | 44.76537 | 14.20234 | 34118 ft | 416 kts | 310° |
| 2026-05-03 21:02 | 44.80200 | 14.13939 | 34111 ft | 415 kts | 310° |
| 2026-05-03 21:02 | 44.83851 | 14.07650 | 34119 ft | 415 kts | 310° |
| 2026-05-03 21:03 | 44.87494 | 14.01345 | 34122 ft | 414 kts | 310° |
| 2026-05-03 21:03 | 44.91134 | 13.95040 | 34122 ft | 414 kts | 310° |
| 2026-05-03 21:04 | 44.94770 | 13.88723 | 34123 ft | 415 kts | 310° |
| 2026-05-03 21:04 | 44.98402 | 13.82383 | 34110 ft | 415 kts | 310° |
| 2026-05-03 21:05 | 45.02038 | 13.76035 | 34110 ft | 416 kts | 310° |
| 2026-05-03 21:05 | 45.05677 | 13.69680 | 34109 ft | 416 kts | 310° |
| 2026-05-03 21:06 | 45.09310 | 13.63310 | 34114 ft | 416 kts | 310° |
| 2026-05-03 21:06 | 45.12949 | 13.56929 | 34114 ft | 416 kts | 310° |
| 2026-05-03 21:07 | 45.16587 | 13.50535 | 34094 ft | 417 kts | 309° |
| 2026-05-03 21:07 | 45.20230 | 13.44105 | 34097 ft | 418 kts | 309° |
| 2026-05-03 21:08 | 45.23873 | 13.37663 | 34095 ft | 419 kts | 309° |
| 2026-05-03 21:08 | 45.27518 | 13.31215 | 34095 ft | 419 kts | 309° |
| 2026-05-03 21:09 | 45.31138 | 13.24790 | 34095 ft | 419 kts | 309° |
| 2026-05-03 21:09 | 45.34917 | 13.18465 | 34078 ft | 421 kts | 311° |
| 2026-05-03 21:10 | 45.38840 | 13.12267 | 34077 ft | 422 kts | 312° |
| 2026-05-03 21:10 | 45.42767 | 13.06041 | 34090 ft | 423 kts | 311° |
| 2026-05-03 21:11 | 45.46619 | 12.99705 | 34093 ft | 423 kts | 306° |
| 2026-05-03 21:11 | 45.50080 | 12.92903 | 34096 ft | 424 kts | 306° |
| 2026-05-03 21:12 | 45.53554 | 12.86106 | 34088 ft | 425 kts | 306° |
| 2026-05-03 21:12 | 45.57042 | 12.79283 | 34093 ft | 426 kts | 306° |
| 2026-05-03 21:13 | 45.60527 | 12.72440 | 34097 ft | 426 kts | 306° |
| 2026-05-03 21:13 | 45.64008 | 12.65573 | 34102 ft | 427 kts | 305° |
| 2026-05-03 21:14 | 45.67486 | 12.58700 | 34119 ft | 427 kts | 305° |
| 2026-05-03 21:14 | 45.70963 | 12.51817 | 34098 ft | 427 kts | 305° |
| 2026-05-03 21:15 | 45.74444 | 12.44910 | 34101 ft | 428 kts | 305° |
| 2026-05-03 21:15 | 45.77927 | 12.37986 | 34101 ft | 429 kts | 305° |
| 2026-05-03 21:16 | 45.81405 | 12.31055 | 34108 ft | 429 kts | 305° |
| 2026-05-03 21:16 | 45.84884 | 12.24112 | 34112 ft | 429 kts | 304° |
| 2026-05-03 21:17 | 45.87774 | 12.18320 | 34116 ft | 429 kts | 304° |
| 2026-05-03 21:17 | 45.91828 | 12.10160 | 34117 ft | 430 kts | 304° |
| 2026-05-03 21:18 | 45.95295 | 12.03170 | 34121 ft | 430 kts | 304° |
| 2026-05-03 21:18 | 45.98771 | 11.96162 | 34115 ft | 431 kts | 304° |
| 2026-05-03 21:19 | 46.02216 | 11.89177 | 34126 ft | 431 kts | 303° |
| 2026-05-03 21:19 | 46.05689 | 11.82128 | 34117 ft | 432 kts | 303° |
| 2026-05-03 21:20 | 46.09172 | 11.75058 | 34117 ft | 433 kts | 303° |
| 2026-05-03 21:20 | 46.12650 | 11.67969 | 34143 ft | 433 kts | 303° |
| 2026-05-03 21:21 | 46.16128 | 11.60863 | 34137 ft | 434 kts | 303° |
| 2026-05-03 21:21 | 46.19599 | 11.53737 | 34153 ft | 434 kts | 303° |
| 2026-05-03 21:22 | 46.23069 | 11.46608 | 34158 ft | 434 kts | 303° |
| 2026-05-03 21:22 | 46.26537 | 11.39477 | 34157 ft | 434 kts | 303° |
| 2026-05-03 21:23 | 46.29994 | 11.32332 | 34157 ft | 434 kts | 303° |
| 2026-05-03 21:23 | 46.33447 | 11.25184 | 34176 ft | 434 kts | 302° |
| 2026-05-03 21:24 | 46.36904 | 11.18007 | 34248 ft | 435 kts | 302° |
| 2026-05-03 21:24 | 46.40361 | 11.10804 | 34243 ft | 436 kts | 302° |
| 2026-05-03 21:25 | 46.43820 | 11.03584 | 34200 ft | 437 kts | 302° |
| 2026-05-03 21:25 | 46.47287 | 10.96340 | 34208 ft | 437 kts | 302° |
| 2026-05-03 21:26 | 46.50749 | 10.89087 | 34213 ft | 437 kts | 302° |
| 2026-05-03 21:26 | 46.54208 | 10.81812 | 34204 ft | 438 kts | 302° |
| 2026-05-03 21:27 | 46.57661 | 10.74533 | 34201 ft | 438 kts | 302° |
| 2026-05-03 21:27 | 46.61112 | 10.67241 | 34187 ft | 438 kts | 301° |
| 2026-05-03 21:28 | 46.64537 | 10.59980 | 34192 ft | 438 kts | 301° |
| 2026-05-03 21:28 | 46.67972 | 10.52662 | 34185 ft | 438 kts | 301° |
| 2026-05-03 21:29 | 46.71402 | 10.45338 | 34179 ft | 437 kts | 301° |
| 2026-05-03 21:29 | 46.74478 | 10.37742 | 34158 ft | 434 kts | 290° |
| 2026-05-03 21:30 | 46.76821 | 10.29626 | 34147 ft | 435 kts | 290° |
| 2026-05-03 21:30 | 46.79155 | 10.21505 | 34154 ft | 434 kts | 290° |
| 2026-05-03 21:31 | 46.81485 | 10.13380 | 34152 ft | 434 kts | 290° |
| 2026-05-03 21:31 | 46.83811 | 10.05259 | 34150 ft | 433 kts | 290° |
| 2026-05-03 21:32 | 46.86125 | 9.97148 | 34143 ft | 432 kts | 290° |
| 2026-05-03 21:32 | 46.88424 | 9.89034 | 34120 ft | 432 kts | 290° |
| 2026-05-03 21:33 | 46.90716 | 9.80921 | 34118 ft | 431 kts | 290° |
| 2026-05-03 21:33 | 46.92613 | 9.74181 | 34114 ft | 431 kts | 290° |
| 2026-05-03 21:34 | 46.94886 | 9.66068 | 34105 ft | 431 kts | 290° |
| 2026-05-03 21:34 | 46.97161 | 9.57948 | 34098 ft | 431 kts | 290° |
| 2026-05-03 21:35 | 46.99429 | 9.49828 | 34097 ft | 431 kts | 290° |
| 2026-05-03 21:35 | 47.01694 | 9.41690 | 34089 ft | 431 kts | 289° |
| 2026-05-03 21:36 | 47.03950 | 9.33543 | 34089 ft | 431 kts | 289° |
| 2026-05-03 21:36 | 47.06205 | 9.25390 | 34086 ft | 431 kts | 289° |
| 2026-05-03 21:37 | 47.08460 | 9.17236 | 34090 ft | 431 kts | 289° |
| 2026-05-03 21:37 | 47.10700 | 9.09081 | 34091 ft | 431 kts | 289° |
| 2026-05-03 21:38 | 47.12931 | 9.00901 | 34099 ft | 431 kts | 289° |
| 2026-05-03 21:38 | 47.15153 | 8.92720 | 34101 ft | 431 kts | 289° |
| 2026-05-03 21:39 | 47.17332 | 8.84512 | 34102 ft | 431 kts | 288° |
| 2026-05-03 21:39 | 47.19423 | 8.76261 | 34102 ft | 431 kts | 287° |
| 2026-05-03 21:40 | 47.21492 | 8.68002 | 34114 ft | 431 kts | 287° |
| 2026-05-03 21:40 | 47.23561 | 8.59798 | 34111 ft | 430 kts | 287° |
| 2026-05-03 21:41 | 47.25641 | 8.51555 | 34103 ft | 430 kts | 287° |
| 2026-05-03 21:41 | 47.27719 | 8.43312 | 34097 ft | 429 kts | 287° |
| 2026-05-03 21:42 | 47.29793 | 8.35076 | 34094 ft | 429 kts | 287° |
| 2026-05-03 21:42 | 47.31862 | 8.26826 | 34101 ft | 429 kts | 286° |
| 2026-05-03 21:43 | 47.33915 | 8.18557 | 34096 ft | 430 kts | 286° |
| 2026-05-03 21:43 | 47.35956 | 8.10286 | 34090 ft | 430 kts | 286° |
| 2026-05-03 21:44 | 47.37999 | 8.02000 | 34087 ft | 430 kts | 286° |
| 2026-05-03 21:44 | 47.40038 | 7.93711 | 34082 ft | 430 kts | 286° |
| 2026-05-03 21:45 | 47.42070 | 7.85412 | 34086 ft | 430 kts | 286° |
| 2026-05-03 21:45 | 47.44094 | 7.77113 | 34077 ft | 430 kts | 286° |
| 2026-05-03 21:46 | 47.46112 | 7.68806 | 34073 ft | 429 kts | 286° |
| 2026-05-03 21:46 | 47.47706 | 7.60351 | 34061 ft | 427 kts | 280° |
| 2026-05-03 21:47 | 47.49132 | 7.51833 | 34086 ft | 427 kts | 280° |
| 2026-05-03 21:47 | 47.50553 | 7.43315 | 34077 ft | 427 kts | 280° |
| 2026-05-03 21:48 | 47.51964 | 7.34783 | 34069 ft | 427 kts | 279° |
| 2026-05-03 21:48 | 47.53361 | 7.26311 | 34067 ft | 427 kts | 280° |
| 2026-05-03 21:49 | 47.54770 | 7.17769 | 34067 ft | 427 kts | 279° |
| 2026-05-03 21:49 | 47.56167 | 7.09222 | 34082 ft | 427 kts | 279° |
| 2026-05-03 21:50 | 47.57553 | 7.00673 | 34073 ft | 427 kts | 279° |
| 2026-05-03 21:50 | 47.58935 | 6.92120 | 34072 ft | 427 kts | 279° |
| 2026-05-03 21:51 | 47.60314 | 6.83563 | 34076 ft | 427 kts | 279° |
| 2026-05-03 21:51 | 47.61686 | 6.74999 | 34069 ft | 427 kts | 279° |
| 2026-05-03 21:52 | 47.63051 | 6.66417 | 34063 ft | 428 kts | 279° |
| 2026-05-03 21:52 | 47.64411 | 6.57818 | 34052 ft | 429 kts | 279° |
| 2026-05-03 21:53 | 47.65769 | 6.49199 | 34052 ft | 429 kts | 279° |
| 2026-05-03 21:53 | 47.67119 | 6.40575 | 34053 ft | 430 kts | 279° |
| 2026-05-03 21:54 | 47.68462 | 6.31930 | 34055 ft | 430 kts | 279° |
| 2026-05-03 21:54 | 47.69982 | 6.23333 | 34056 ft | 433 kts | 283° |
| 2026-05-03 21:55 | 47.71861 | 6.14819 | 34044 ft | 435 kts | 284° |
| 2026-05-03 21:55 | 47.73781 | 6.06297 | 34038 ft | 435 kts | 284° |
| 2026-05-03 21:56 | 47.75604 | 5.97785 | 34035 ft | 435 kts | 283° |
| 2026-05-03 21:56 | 47.77391 | 5.89187 | 34045 ft | 435 kts | 283° |
| 2026-05-03 21:57 | 47.79176 | 5.80587 | 34034 ft | 436 kts | 283° |
| 2026-05-03 21:57 | 47.80971 | 5.71968 | 34029 ft | 436 kts | 283° |
| 2026-05-03 21:58 | 47.82758 | 5.63354 | 34029 ft | 436 kts | 283° |
| 2026-05-03 21:58 | 47.84540 | 5.54721 | 34029 ft | 436 kts | 283° |
| 2026-05-03 21:59 | 47.86312 | 5.46084 | 34049 ft | 436 kts | 283° |
| 2026-05-03 21:59 | 47.88082 | 5.37441 | 34040 ft | 436 kts | 283° |
| 2026-05-03 22:00 | 47.89905 | 5.28830 | 34042 ft | 438 kts | 287° |
| 2026-05-03 22:00 | 47.93046 | 5.20968 | 34030 ft | 449 kts | 306° |
| 2026-05-03 22:01 | 47.97269 | 5.14060 | 34024 ft | 450 kts | 307° |
| 2026-05-03 22:01 | 48.01473 | 5.07130 | 34046 ft | 450 kts | 306° |
| 2026-05-03 22:02 | 48.05647 | 5.00194 | 34038 ft | 447 kts | 306° |
| 2026-05-03 22:02 | 48.09796 | 4.93295 | 34024 ft | 446 kts | 306° |
| 2026-05-03 22:03 | 48.13939 | 4.86407 | 34035 ft | 444 kts | 306° |
| 2026-05-03 22:03 | 48.18060 | 4.79537 | 34031 ft | 442 kts | 306° |
| 2026-05-03 22:04 | 48.22160 | 4.72688 | 34020 ft | 441 kts | 306° |
| 2026-05-03 22:04 | 48.26186 | 4.65938 | 33997 ft | 431 kts | 305° |
| 2026-05-03 22:05 | 48.30167 | 4.59254 | 33990 ft | 428 kts | 305° |
| 2026-05-03 22:05 | 48.34125 | 4.52574 | 33987 ft | 428 kts | 305° |
| 2026-05-03 22:06 | 48.38081 | 4.45892 | 33986 ft | 428 kts | 305° |
| 2026-05-03 22:06 | 48.42039 | 4.39195 | 33982 ft | 428 kts | 304° |
| 2026-05-03 22:07 | 48.45984 | 4.32481 | 33983 ft | 428 kts | 304° |
| 2026-05-03 22:07 | 48.49932 | 4.25762 | 33978 ft | 429 kts | 304° |
| 2026-05-03 22:08 | 48.53890 | 4.19015 | 33970 ft | 430 kts | 304° |
| 2026-05-03 22:08 | 48.57849 | 4.12247 | 33974 ft | 430 kts | 304° |
| 2026-05-03 22:09 | 48.61806 | 4.05468 | 33983 ft | 431 kts | 304° |
| 2026-05-03 22:10 | 48.67740 | 3.95260 | 33974 ft | 431 kts | 303° |
| 2026-05-03 22:10 | 48.71683 | 3.88427 | 33961 ft | 431 kts | 303° |
| 2026-05-03 22:11 | 48.75797 | 3.81772 | 33973 ft | 435 kts | 308° |
| 2026-05-03 22:11 | 48.80177 | 3.75419 | 33973 ft | 437 kts | 309° |
| 2026-05-03 22:12 | 48.84585 | 3.69082 | 33972 ft | 436 kts | 308° |
| 2026-05-03 22:12 | 48.88918 | 3.62653 | 33971 ft | 435 kts | 308° |
| 2026-05-03 22:13 | 48.93215 | 3.56173 | 33969 ft | 435 kts | 307° |
| 2026-05-03 22:13 | 48.97512 | 3.49684 | 33971 ft | 435 kts | 307° |
| 2026-05-03 22:14 | 49.01815 | 3.43191 | 33968 ft | 436 kts | 307° |
| 2026-05-03 22:14 | 49.06127 | 3.36692 | 33983 ft | 436 kts | 307° |
| 2026-05-03 22:15 | 49.10408 | 3.30222 | 33973 ft | 436 kts | 307° |
| 2026-05-03 22:15 | 49.14714 | 3.23692 | 33968 ft | 437 kts | 307° |
| 2026-05-03 22:16 | 49.19021 | 3.17138 | 33967 ft | 437 kts | 307° |
| 2026-05-03 22:16 | 49.23316 | 3.10577 | 33969 ft | 437 kts | 307° |
| 2026-05-03 22:17 | 49.27617 | 3.03995 | 33986 ft | 438 kts | 306° |
| 2026-05-03 22:17 | 49.31925 | 2.97388 | 33962 ft | 438 kts | 306° |
| 2026-05-03 22:18 | 49.36233 | 2.90749 | 33956 ft | 439 kts | 306° |
| 2026-05-03 22:18 | 49.40538 | 2.84101 | 33956 ft | 440 kts | 306° |
| 2026-05-03 22:19 | 49.44853 | 2.77434 | 33960 ft | 440 kts | 306° |
| 2026-05-03 22:19 | 49.49171 | 2.70758 | 33962 ft | 440 kts | 306° |
| 2026-05-03 22:20 | 49.53481 | 2.64056 | 33969 ft | 441 kts | 305° |
| 2026-05-03 22:20 | 49.57800 | 2.57302 | 33955 ft | 443 kts | 305° |
| 2026-05-03 22:21 | 49.62387 | 2.50858 | 33945 ft | 454 kts | 314° |
| 2026-05-03 22:21 | 49.67433 | 2.44972 | 33947 ft | 455 kts | 314° |
| 2026-05-03 22:22 | 49.72482 | 2.39062 | 33955 ft | 455 kts | 314° |
| 2026-05-03 22:22 | 49.77516 | 2.33129 | 33950 ft | 455 kts | 313° |
| 2026-05-03 22:23 | 49.81695 | 2.28174 | 33952 ft | 455 kts | 313° |
| 2026-05-03 22:23 | 49.86733 | 2.22205 | 33938 ft | 457 kts | 314° |
| 2026-05-03 22:24 | 49.91799 | 2.16195 | 33926 ft | 459 kts | 314° |
| 2026-05-03 22:24 | 49.96881 | 2.10146 | 33936 ft | 461 kts | 314° |
| 2026-05-03 22:25 | 50.01974 | 2.04063 | 33939 ft | 462 kts | 314° |
| 2026-05-03 22:25 | 50.07073 | 1.97963 | 33936 ft | 463 kts | 314° |
| 2026-05-03 22:26 | 50.12180 | 1.91838 | 33939 ft | 463 kts | 314° |
| 2026-05-03 22:26 | 50.17222 | 1.85696 | 33942 ft | 459 kts | 310° |
| 2026-05-03 22:27 | 50.21782 | 1.78817 | 33968 ft | 456 kts | 308° |
| 2026-05-03 22:27 | 50.26326 | 1.71876 | 33950 ft | 457 kts | 308° |
| 2026-05-03 22:28 | 50.30878 | 1.64917 | 33942 ft | 458 kts | 308° |
| 2026-05-03 22:28 | 50.35441 | 1.57936 | 33501 ft | 460 kts | 308° |
| 2026-05-03 22:28 | 50.37727 | 1.54427 | 32902 ft | 460 kts | 308° |
| 2026-05-03 22:29 | 50.40008 | 1.50918 | 32318 ft | 460 kts | 308° |
| 2026-05-03 22:29 | 50.42294 | 1.47399 | 31756 ft | 461 kts | 309° |
| 2026-05-03 22:29 | 50.44582 | 1.43875 | 31198 ft | 462 kts | 309° |
| 2026-05-03 22:29 | 50.46874 | 1.40336 | 30652 ft | 463 kts | 309° |
| 2026-05-03 22:30 | 50.49171 | 1.36779 | 30141 ft | 464 kts | 309° |
| 2026-05-03 22:30 | 50.51434 | 1.33171 | 29528 ft | 463 kts | 308° |
| 2026-05-03 22:30 | 50.53643 | 1.29485 | 28900 ft | 463 kts | 307° |
| 2026-05-03 22:30 | 50.55816 | 1.25742 | 28287 ft | 464 kts | 307° |
| 2026-05-03 22:31 | 50.57978 | 1.21968 | 27693 ft | 465 kts | 307° |
| 2026-05-03 22:31 | 50.60186 | 1.18238 | 27103 ft | 467 kts | 309° |
| 2026-05-03 22:31 | 50.62458 | 1.14573 | 26538 ft | 469 kts | 310° |
| 2026-05-03 22:31 | 50.64776 | 1.10949 | 25974 ft | 470 kts | 311° |
| 2026-05-03 22:32 | 50.67117 | 1.07336 | 25423 ft | 472 kts | 311° |
| 2026-05-03 22:32 | 50.69464 | 1.03713 | 24879 ft | 471 kts | 311° |
| 2026-05-03 22:32 | 50.71786 | 1.00093 | 24349 ft | 468 kts | 311° |
| 2026-05-03 22:32 | 50.74080 | 0.96478 | 23827 ft | 464 kts | 311° |
| 2026-05-03 22:33 | 50.76346 | 0.92874 | 23287 ft | 461 kts | 311° |
| 2026-05-03 22:33 | 50.78585 | 0.89289 | 22682 ft | 457 kts | 311° |
| 2026-05-03 22:33 | 50.80809 | 0.85719 | 22085 ft | 453 kts | 311° |
| 2026-05-03 22:33 | 50.83006 | 0.82187 | 21500 ft | 449 kts | 311° |
| 2026-05-03 22:34 | 50.85175 | 0.78708 | 20917 ft | 435 kts | 311° |
| 2026-05-03 22:34 | 50.87255 | 0.75383 | 20347 ft | 415 kts | 311° |
| 2026-05-03 22:34 | 50.89244 | 0.72202 | 19810 ft | 398 kts | 311° |
| 2026-05-03 22:34 | 50.91154 | 0.69137 | 19277 ft | 384 kts | 311° |
| 2026-05-03 22:35 | 50.92998 | 0.66170 | 18761 ft | 371 kts | 311° |
| 2026-05-03 22:35 | 50.94780 | 0.63299 | 18242 ft | 360 kts | 311° |
| 2026-05-03 22:35 | 50.96494 | 0.60535 | 17989 ft | 343 kts | 311° |
| 2026-05-03 22:35 | 50.98136 | 0.57889 | 17984 ft | 329 kts | 311° |
| 2026-05-03 22:36 | 50.99732 | 0.55307 | 17994 ft | 327 kts | 311° |
| 2026-05-03 22:36 | 51.01323 | 0.52725 | 18001 ft | 327 kts | 311° |
| 2026-05-03 22:36 | 51.02906 | 0.50143 | 18008 ft | 326 kts | 311° |
| 2026-05-03 22:36 | 51.04490 | 0.47559 | 18014 ft | 326 kts | 311° |
| 2026-05-03 22:37 | 51.06076 | 0.44977 | 18013 ft | 327 kts | 311° |
| 2026-05-03 22:37 | 51.07675 | 0.42403 | 18020 ft | 327 kts | 312° |
| 2026-05-03 22:37 | 51.09314 | 0.39862 | 17638 ft | 330 kts | 313° |
| 2026-05-03 22:37 | 51.10958 | 0.37367 | 17029 ft | 325 kts | 313° |
| 2026-05-03 22:38 | 51.12571 | 0.34942 | 16433 ft | 321 kts | 314° |
| 2026-05-03 22:38 | 51.14207 | 0.32480 | 15814 ft | 319 kts | 314° |
| 2026-05-03 22:38 | 51.15788 | 0.30087 | 15197 ft | 316 kts | 314° |
| 2026-05-03 22:38 | 51.17374 | 0.27676 | 14584 ft | 315 kts | 314° |
| 2026-05-03 22:39 | 51.18950 | 0.25271 | 13975 ft | 313 kts | 314° |
| 2026-05-03 22:39 | 51.20515 | 0.22880 | 13315 ft | 311 kts | 314° |
| 2026-05-03 22:39 | 51.22288 | 0.20942 | 12647 ft | 312 kts | 337° |
| 2026-05-03 22:39 | 51.24412 | 0.20291 | 11996 ft | 312 kts | 358° |
| 2026-05-03 22:40 | 51.26574 | 0.20342 | 11361 ft | 310 kts | 1° |
| 2026-05-03 22:40 | 51.28726 | 0.20475 | 10736 ft | 308 kts | 1° |
| 2026-05-03 22:40 | 51.30860 | 0.20619 | 10123 ft | 306 kts | 1° |
| 2026-05-03 22:40 | 51.32982 | 0.20764 | 9432 ft | 304 kts | 1° |
| 2026-05-03 22:41 | 51.35087 | 0.20906 | 8775 ft | 302 kts | 1° |
| 2026-05-03 22:41 | 51.37173 | 0.21052 | 8130 ft | 300 kts | 1° |
| 2026-05-03 22:41 | 51.39251 | 0.21196 | 7495 ft | 297 kts | 1° |
| 2026-05-03 22:41 | 51.41309 | 0.21334 | 6871 ft | 295 kts | 1° |
| 2026-05-03 22:42 | 51.43357 | 0.21465 | 6254 ft | 293 kts | 0° |
| 2026-05-03 22:42 | 51.45341 | 0.21013 | 5608 ft | 288 kts | 336° |
| 2026-05-03 22:42 | 51.46968 | 0.19253 | 4973 ft | 282 kts | 310° |
| 2026-05-03 22:42 | 51.48120 | 0.16731 | 4336 ft | 279 kts | 300° |
| 2026-05-03 22:43 | 51.48654 | 0.13884 | 4049 ft | 260 kts | 265° |
| 2026-05-03 22:43 | 51.48120 | 0.11227 | 3999 ft | 245 kts | 240° |
| 2026-05-03 22:43 | 51.47524 | 0.08773 | 3995 ft | 232 kts | 266° |
| 2026-05-03 22:43 | 51.47718 | 0.06213 | 4008 ft | 232 kts | 278° |
| 2026-05-03 22:44 | 51.47817 | 0.03638 | 4008 ft | 232 kts | 269° |
| 2026-05-03 22:44 | 51.47810 | 0.01056 | 4009 ft | 231 kts | 268° |
| 2026-05-03 22:44 | 51.47804 | -0.01527 | 4009 ft | 232 kts | 269° |
| 2026-05-03 22:44 | 51.47805 | -0.04116 | 4003 ft | 232 kts | 269° |
| 2026-05-03 22:45 | 51.47807 | -0.06702 | 4004 ft | 232 kts | 269° |
| 2026-05-03 22:45 | 51.47808 | -0.09284 | 4006 ft | 232 kts | 269° |
| 2026-05-03 22:45 | 51.47808 | -0.11878 | 3896 ft | 232 kts | 269° |
| 2026-05-03 22:45 | 51.47808 | -0.14457 | 3626 ft | 231 kts | 269° |
| 2026-05-03 22:46 | 51.47807 | -0.17025 | 3327 ft | 230 kts | 269° |
| 2026-05-03 22:46 | 51.47806 | -0.19580 | 3021 ft | 229 kts | 269° |
| 2026-05-03 22:46 | 51.47803 | -0.22125 | 2715 ft | 228 kts | 269° |
| 2026-05-03 22:46 | 51.47801 | -0.24617 | 2411 ft | 217 kts | 269° |
| 2026-05-03 22:47 | 51.47798 | -0.26979 | 2127 ft | 205 kts | 269° |
| 2026-05-03 22:47 | 51.47795 | -0.29181 | 1870 ft | 190 kts | 270° |
| 2026-05-03 22:47 | 51.47792 | -0.31225 | 1620 ft | 175 kts | 269° |
| 2026-05-03 22:47 | 51.47789 | -0.33113 | 1374 ft | 165 kts | 269° |
| 2026-05-03 22:48 | 51.47786 | -0.34895 | 1167 ft | 152 kts | 269° |
| 2026-05-03 22:48 | 51.47782 | -0.36547 | 958 ft | 145 kts | 269° |
| 2026-05-03 22:48 | 51.47779 | -0.38151 | 759 ft | 143 kts | 268° |
| 2026-05-03 22:48 | 51.47775 | -0.39735 | 560 ft | 142 kts | 268° |
| 2026-05-03 22:49 | 51.47767 | -0.41308 | 357 ft | 142 kts | 268° |
| 2026-05-03 22:49 | 51.47767 | -0.42851 | 172 ft | 139 kts | 269° |
| 2026-05-03 22:49 | 51.47762 | -0.44379 | 87 ft | 127 kts | 270° |
| 2026-05-03 22:49 | 51.47761 | -0.45505 | 85 ft | 76 kts | 270° |
| 2026-05-03 22:50 | 51.47758 | -0.46209 | 87 ft | 57 kts | 270° |
| 2026-05-03 22:50 | 51.47741 | -0.46591 | 89 ft | 29 kts | 249° |
| 2026-05-03 22:50 | 51.47682 | -0.46783 | 88 ft | 11 kts | 243° |
| 2026-05-03 22:50 | 51.47640 | -0.46868 | 87 ft | 0 kts | 206° |
| 2026-05-03 22:51 | 51.47639 | -0.46869 | 89 ft | 2 kts | 206° |
| 2026-05-03 22:51 | 51.47606 | -0.46895 | 89 ft | 9 kts | 207° |
| 2026-05-03 22:52 | 51.47583 | -0.47008 | 86 ft | 14 kts | 270° |
| 2026-05-03 22:52 | 51.47582 | -0.47191 | 88 ft | 18 kts | 269° |
| 2026-05-03 22:52 | 51.47581 | -0.47417 | 88 ft | 22 kts | 270° |
| 2026-05-03 22:52 | 51.47581 | -0.47681 | 90 ft | 25 kts | 270° |
| 2026-05-03 22:53 | 51.47579 | -0.47974 | 88 ft | 27 kts | 269° |
| 2026-05-03 22:53 | 51.47578 | -0.48251 | 88 ft | 24 kts | 269° |
| 2026-05-03 22:53 | 51.47571 | -0.48449 | 86 ft | 15 kts | 244° |
| 2026-05-03 22:53 | 51.47468 | -0.48476 | 86 ft | 17 kts | 179° |
| 2026-05-03 22:54 | 51.47342 | -0.48474 | 86 ft | 19 kts | 180° |
| 2026-05-03 22:54 | 51.47201 | -0.48474 | 86 ft | 21 kts | 180° |
| 2026-05-03 22:54 | 51.47052 | -0.48473 | 86 ft | 22 kts | 179° |
| 2026-05-03 22:54 | 51.46930 | -0.48470 | 86 ft | 11 kts | 179° |
| 2026-05-03 22:55 | 51.46878 | -0.48529 | 86 ft | 11 kts | 263° |
| 2026-05-03 22:55 | 51.46877 | -0.48663 | 86 ft | 11 kts | 269° |
| 2026-05-03 22:55 | 51.46897 | -0.48714 | 89 ft | 6 kts | 353° |
| 2026-05-03 22:55 | 51.46925 | -0.48715 | 88 ft | 2 kts | 359° |
| 2026-05-03 22:56 | 51.46930 | -0.48715 | 88 ft | 0 kts | 359° |